Sunnyside, Canada
Current Conditions -  °F | °C
As of 1:30 AM on Friday 28 Nov 2014 (Local Time) from CYYT Reporting Station
Broken Clouds Broken Clouds  
Wind Chill: 30°   Ceiling: 1300
Heat Index: 41°   Visibility: 15mi
Dew Point: 37°   Wind: 30mph
Humidity: 87%   Direction: 250°WSW
Pressure: 29.34"   Gusts: 41mph
Location:  47.87°N, 53.93°W
Report Text: CYYT 280430Z 25026G36KT 15SM BKN013 05/03 A2934 RMK SC5 SLP940
Loading
Personal Weather Stations






























Interactive Weather Map New forecast layout! Learn more

10-Day Weather Forecast

Advertisements
Track Severe Weather on mobile